Time;durP1;ratioP1;P1;durP2;ratioP2;P2;SDS_P1;SDS_P2;PMS_P1;PMS_P2;Temp;Humidity;BMP_temperature;BMP_pressure;BME280_temperature;BME280_humidity;BME280_pressure;Samples;Min_cycle;Max_cycle;Signal;HPM_P1;HPM_P2
2021/10/16 00:00:56;;;;;;;6.50;4.70;;;11.00;70.80;;;;;;5037652;28;20448;-76
2021/10/16 00:03:22;;;;;;;6.88;4.55;;;11.10;70.70;;;;;;5055643;28;20392;-76
2021/10/16 00:05:48;;;;;;;5.15;4.15;;;11.10;70.30;;;;;;5055517;28;20067;-76
2021/10/16 00:08:13;;;;;;;7.63;4.90;;;11.10;70.50;;;;;;5037372;28;20073;-76
2021/10/16 00:10:39;;;;;;;10.80;5.40;;;11.00;70.30;;;;;;5055168;28;20021;-76
2021/10/16 00:13:05;;;;;;;5.57;4.22;;;11.00;70.30;;;;;;5055227;28;20033;-76
2021/10/16 00:15:31;;;;;;;5.18;4.05;;;10.90;71.00;;;;;;5055382;28;20021;-77
2021/10/16 00:17:57;;;;;;;5.50;4.25;;;10.90;70.70;;;;;;5055230;28;20037;-76
2021/10/16 00:20:23;;;;;;;4.78;4.07;;;10.90;71.20;;;;;;5054946;28;20100;-77
2021/10/16 00:22:49;;;;;;;4.90;4.18;;;10.80;72.20;;;;;;5037382;28;20056;-76
2021/10/16 00:25:15;;;;;;;6.25;4.30;;;10.70;72.10;;;;;;5055118;28;20017;-76
2021/10/16 00:27:41;;;;;;;7.35;4.78;;;10.70;71.60;;;;;;5037305;28;20028;-77
2021/10/16 00:30:07;;;;;;;9.23;4.20;;;10.60;72.80;;;;;;5037206;28;20028;-76
2021/10/16 00:32:32;;;;;;;8.40;4.45;;;10.50;72.30;;;;;;5054980;28;20028;-76
2021/10/16 00:34:58;;;;;;;6.15;4.40;;;10.50;71.80;;;;;;5037201;28;20463;-76
2021/10/16 00:37:24;;;;;;;8.77;4.47;;;10.60;71.50;;;;;;5036919;28;20029;-76
2021/10/16 00:39:52;;;;;;;5.85;4.38;;;10.80;71.40;;;;;;5054749;28;20086;-76
2021/10/16 00:42:18;;;;;;;6.53;4.32;;;10.80;70.60;;;;;;5054867;28;20029;-76
2021/10/16 00:44:44;;;;;;;7.53;5.00;;;10.70;70.80;;;;;;5054686;28;20471;-76
2021/10/16 00:47:10;;;;;;;4.68;4.15;;;10.70;70.40;;;;;;5036721;28;20036;-76
2021/10/16 00:49:35;;;;;;;5.80;4.55;;;10.80;70.60;;;;;;5036512;28;20062;-76
2021/10/16 00:52:02;;;;;;;5.30;4.32;;;10.90;70.60;;;;;;5036792;28;20021;-76
2021/10/16 00:54:28;;;;;;;4.95;4.45;;;11.00;69.70;;;;;;5054571;28;20036;-77
2021/10/16 00:56:57;;;;;;;5.85;4.65;;;11.00;69.70;;;;;;5054612;28;20029;-76
2021/10/16 00:59:23;;;;;;;7.15;4.90;;;11.10;69.60;;;;;;5053940;28;20041;-77
2021/10/16 01:01:49;;;;;;;4.90;4.38;;;10.90;70.70;;;;;;5054004;28;20044;-77
2021/10/16 01:04:15;;;;;;;7.97;4.43;;;10.90;70.80;;;;;;5054536;28;20028;-76
2021/10/16 01:06:41;;;;;;;5.10;4.45;;;10.90;70.20;;;;;;5054561;28;20421;-76
2021/10/16 01:09:10;;;;;;;5.00;4.18;;;10.90;70.00;;;;;;5036493;28;20078;-77
2021/10/16 01:11:54;;;;;;;6.32;4.72;;;10.90;69.70;;;;;;5054313;28;20032;-76
2021/10/16 01:14:21;;;;;;;6.05;4.60;;;11.10;69.00;;;;;;5036343;28;20044;-76
2021/10/16 01:16:51;;;;;;;6.55;4.47;;;11.10;69.10;;;;;;5053664;28;20075;-77
2021/10/16 01:19:18;;;;;;;6.60;4.40;;;11.10;68.90;;;;;;5053900;28;20507;-77
2021/10/16 01:21:47;;;;;;;5.22;4.15;;;11.00;68.90;;;;;;5036131;28;20495;-76
2021/10/16 01:24:14;;;;;;;5.00;4.15;;;10.90;69.80;;;;;;5036078;28;20029;-76
2021/10/16 01:26:44;;;;;;;4.93;4.50;;;10.80;70.10;;;;;;5052870;28;20071;-76
2021/10/16 01:29:13;;;;;;;5.65;4.30;;;10.80;69.80;;;;;;5053925;28;20017;-76
2021/10/16 01:31:40;;;;;;;8.65;4.50;;;10.80;69.70;;;;;;5053752;28;20025;-76
2021/10/16 01:34:06;;;;;;;4.82;4.28;;;10.80;70.00;;;;;;5053927;28;20029;-76
2021/10/16 01:36:49;;;;;;;4.45;3.70;;;10.70;70.00;;;;;;5035967;28;20103;-76
2021/10/16 01:39:14;;;;;;;;;;;10.70;69.40;;;;;;5036365;28;20028;-77
2021/10/16 01:41:42;;;;;;;3.85;3.13;;;10.70;69.20;;;;;;5053736;28;19912;-77
2021/10/16 01:44:09;;;;;;;4.72;3.78;;;10.80;67.50;;;;;;5053780;28;20013;-77
2021/10/16 01:46:35;;;;;;;4.03;3.45;;;10.90;67.70;;;;;;5053695;28;20021;-77
2021/10/16 01:49:12;;;;;;;6.70;4.30;;;10.90;68.00;;;;;;5053688;28;20162;-76
2021/10/16 01:51:38;;;;;;;5.43;3.60;;;10.80;69.10;;;;;;5053556;28;20025;-76
2021/10/16 01:54:04;;;;;;;4.07;3.60;;;10.80;67.20;;;;;;5053539;28;20021;-76
2021/10/16 01:56:30;;;;;;;4.43;3.80;;;10.80;67.90;;;;;;5053434;28;20399;-76
2021/10/16 01:58:55;;;;;;;4.85;3.80;;;10.70;67.60;;;;;;5035349;28;20048;-76
2021/10/16 02:01:21;;;;;;;6.55;3.55;;;10.70;69.20;;;;;;5053359;28;20044;-77
2021/10/16 02:03:47;;;;;;;6.85;4.15;;;10.60;69.80;;;;;;5053306;28;20448;-76
2021/10/16 02:06:12;;;;;;;5.60;4.25;;;10.40;71.00;;;;;;5053383;28;20083;-76
2021/10/16 02:08:38;;;;;;;7.25;3.88;;;10.40;70.70;;;;;;5053243;28;20021;-76
2021/10/16 02:11:05;;;;;;;4.07;3.60;;;10.30;70.80;;;;;;5052937;28;20083;-76
2021/10/16 02:13:31;;;;;;;4.85;4.13;;;10.30;71.40;;;;;;5053047;28;20464;-77
2021/10/16 02:15:56;;;;;;;5.00;4.20;;;10.20;72.50;;;;;;5053069;28;20021;-76
2021/10/16 02:18:22;;;;;;;4.32;3.92;;;10.20;70.30;;;;;;5052852;28;20029;-77
2021/10/16 02:20:48;;;;;;;4.65;4.18;;;10.40;69.70;;;;;;5053090;28;20533;-76
2021/10/16 02:23:13;;;;;;;4.72;4.03;;;10.40;69.90;;;;;;5053199;28;20021;-76
2021/10/16 02:25:39;;;;;;;7.20;3.83;;;10.50;69.90;;;;;;5035415;28;20028;-76
2021/10/16 02:28:05;;;;;;;5.32;3.75;;;10.60;68.90;;;;;;5051590;28;20032;-76
2021/10/16 02:30:30;;;;;;;4.75;3.80;;;10.80;68.30;;;;;;5052392;28;20025;-76
2021/10/16 02:32:56;;;;;;;3.45;3.15;;;10.70;69.10;;;;;;5052632;28;20036;-76
2021/10/16 02:35:22;;;;;;;5.50;4.30;;;10.60;67.60;;;;;;5034943;28;20451;-77
2021/10/16 02:37:48;;;;;;;3.78;3.47;;;10.70;67.00;;;;;;5052492;28;20112;-76
2021/10/16 02:40:13;;;;;;;6.07;4.28;;;10.80;67.50;;;;;;5052783;28;20013;-76
2021/10/16 02:42:40;;;;;;;3.75;3.33;;;10.70;67.70;;;;;;5052597;28;20087;-76
2021/10/16 02:45:06;;;;;;;17.23;3.50;;;10.80;66.80;;;;;;5052868;28;20013;-76
2021/10/16 02:47:31;;;;;;;3.90;3.38;;;10.90;65.50;;;;;;5052928;28;20071;-76
2021/10/16 02:50:01;;;;;;;13.02;3.78;;;11.00;65.00;;;;;;5034887;28;20017;-76
2021/10/16 02:52:27;;;;;;;6.82;3.33;;;11.10;65.50;;;;;;5052869;28;20388;-76
2021/10/16 02:54:53;;;;;;;5.00;3.53;;;11.10;65.60;;;;;;5052683;28;20017;-76
2021/10/16 02:57:19;;;;;;;4.57;3.40;;;11.00;65.80;;;;;;5052676;28;20096;-76
2021/10/16 02:59:44;;;;;;;4.50;3.47;;;10.90;65.40;;;;;;5052715;28;20063;-76
2021/10/16 03:02:10;;;;;;;5.05;4.00;;;10.80;66.70;;;;;;5052696;28;20166;-77
2021/10/16 03:04:36;;;;;;;6.53;3.90;;;10.80;67.10;;;;;;5051979;28;20026;-77
2021/10/16 03:07:02;;;;;;;4.47;4.00;;;10.70;67.70;;;;;;5034758;28;20025;-77
2021/10/16 03:09:27;;;;;;;3.92;3.50;;;10.50;67.80;;;;;;5034811;28;20032;-77
2021/10/16 03:11:53;;;;;;;4.20;3.42;;;10.50;67.70;;;;;;5034659;28;20018;-77
2021/10/16 03:14:19;;;;;;;4.35;3.35;;;10.50;67.60;;;;;;5052402;28;20247;-78
2021/10/16 03:16:45;;;;;;;4.30;3.60;;;10.50;68.10;;;;;;5052547;28;20533;-77
2021/10/16 03:19:10;;;;;;;5.43;3.85;;;10.40;67.80;;;;;;5052591;28;20025;-77
2021/10/16 03:21:36;;;;;;;5.43;4.10;;;10.40;69.50;;;;;;5052672;28;20037;-77
2021/10/16 03:24:02;;;;;;;6.40;3.92;;;10.30;70.00;;;;;;5054332;28;20029;-77
2021/10/16 03:26:28;;;;;;;7.15;3.75;;;10.20;70.00;;;;;;5055991;28;20052;-78
2021/10/16 03:28:54;;;;;;;5.65;3.88;;;10.20;70.20;;;;;;5056221;28;20067;-78
2021/10/16 03:31:19;;;;;;;4.85;3.70;;;10.20;71.00;;;;;;5038071;28;20546;-77
2021/10/16 03:33:45;;;;;;;4.57;3.92;;;10.20;72.60;;;;;;5056023;28;20104;-77
2021/10/16 03:36:11;;;;;;;5.22;3.88;;;10.10;71.30;;;;;;5056092;28;20025;-77
2021/10/16 03:38:37;;;;;;;4.68;3.85;;;10.20;71.60;;;;;;5056128;28;20103;-77
2021/10/16 03:41:02;;;;;;;4.55;3.80;;;10.10;72.60;;;;;;5038130;28;20025;-77
2021/10/16 03:43:28;;;;;;;4.20;3.85;;;10.00;73.80;;;;;;5056058;28;20336;-77
2021/10/16 03:45:54;;;;;;;4.60;4.00;;;10.00;73.50;;;;;;5055906;28;20024;-77
2021/10/16 03:48:20;;;;;;;5.75;4.30;;;9.80;73.70;;;;;;5055886;28;20498;-77
2021/10/16 03:50:46;;;;;;;5.57;4.57;;;9.80;74.00;;;;;;5056052;28;20051;-77
2021/10/16 03:53:12;;;;;;;4.35;3.95;;;9.80;74.30;;;;;;5055842;28;20025;-78
2021/10/16 03:55:37;;;;;;;7.13;4.38;;;9.80;74.80;;;;;;5055727;28;20383;-77
2021/10/16 03:58:03;;;;;;;6.53;4.47;;;9.90;74.10;;;;;;5055452;28;20540;-77
2021/10/16 04:00:29;;;;;;;6.63;4.20;;;10.00;73.50;;;;;;5055287;28;20498;-77
2021/10/16 04:02:58;;;;;;;4.95;4.22;;;10.00;74.40;;;;;;5055447;28;20032;-76
2021/10/16 04:05:24;;;;;;;5.97;4.28;;;10.00;73.30;;;;;;5055500;28;20025;-77
2021/10/16 04:07:50;;;;;;;4.88;4.30;;;10.10;74.10;;;;;;5055453;28;20025;-77
2021/10/16 04:10:16;;;;;;;5.85;4.40;;;10.00;74.40;;;;;;5055209;28;20107;-77
2021/10/16 04:12:41;;;;;;;5.03;4.25;;;10.00;74.60;;;;;;5055573;28;20479;-77
2021/10/16 04:15:07;;;;;;;6.53;4.32;;;10.00;74.20;;;;;;5055278;28;20475;-77
2021/10/16 04:17:33;;;;;;;5.50;4.15;;;10.10;74.60;;;;;;5055780;28;20025;-77
2021/10/16 04:19:59;;;;;;;5.45;4.43;;;10.10;74.10;;;;;;5055142;28;20514;-77
2021/10/16 04:22:25;;;;;;;8.23;4.10;;;10.10;74.10;;;;;;5055024;28;20120;-77
2021/10/16 04:24:50;;;;;;;5.43;4.38;;;10.10;72.70;;;;;;5055228;28;20025;-78
2021/10/16 04:27:16;;;;;;;7.65;4.70;;;10.10;72.70;;;;;;5055197;28;20032;-77
2021/10/16 04:29:42;;;;;;;6.32;4.30;;;10.20;72.10;;;;;;5055287;28;20482;-77
2021/10/16 04:32:08;;;;;;;8.60;4.55;;;10.30;72.50;;;;;;5055091;28;20039;-78
2021/10/16 04:34:34;;;;;;;4.57;4.18;;;10.30;71.90;;;;;;5054909;28;20475;-77
2021/10/16 04:36:59;;;;;;;5.32;4.53;;;10.40;71.40;;;;;;5055101;28;20489;-77
2021/10/16 04:39:27;;;;;;;8.35;4.68;;;10.40;72.40;;;;;;5054632;28;20493;-77
2021/10/16 04:41:53;;;;;;;7.13;4.68;;;10.30;72.80;;;;;;5054654;28;20040;-77
2021/10/16 04:44:19;;;;;;;5.80;4.63;;;10.40;73.80;;;;;;5054916;28;20391;-77
2021/10/16 04:46:45;;;;;;;7.90;4.93;;;10.40;72.20;;;;;;5036935;28;20033;-77
2021/10/16 04:49:11;;;;;;;7.63;4.35;;;10.40;72.30;;;;;;5054763;28;20171;-77
2021/10/16 04:51:36;;;;;;;5.75;4.40;;;10.40;72.70;;;;;;5036930;28;20098;-77
2021/10/16 04:54:02;;;;;;;6.22;4.97;;;10.30;72.20;;;;;;5054696;28;20493;-77
2021/10/16 04:56:28;;;;;;;6.07;4.72;;;10.40;73.00;;;;;;5036991;28;20090;-77
2021/10/16 04:58:54;;;;;;;10.73;4.32;;;10.20;73.50;;;;;;5036561;28;20060;-77
2021/10/16 05:01:20;;;;;;;7.78;4.32;;;10.20;73.60;;;;;;5054286;28;20035;-77
2021/10/16 05:03:46;;;;;;;4.25;3.65;;;10.20;73.10;;;;;;5054414;28;20025;-77
2021/10/16 05:06:12;;;;;;;5.90;4.35;;;10.10;74.10;;;;;;5054421;28;20101;-77
2021/10/16 05:08:37;;;;;;;4.78;4.03;;;10.10;73.90;;;;;;5054282;28;20025;-78
2021/10/16 05:11:03;;;;;;;6.43;3.90;;;10.00;73.60;;;;;;5036059;28;20075;-77
2021/10/16 05:13:29;;;;;;;4.90;3.72;;;9.90;72.60;;;;;;5054547;28;20048;-77
2021/10/16 05:15:54;;;;;;;5.53;3.65;;;9.90;72.30;;;;;;5036483;28;20087;-77
2021/10/16 05:18:23;;;;;;;4.43;3.72;;;10.10;71.00;;;;;;5054125;28;20033;-77
2021/10/16 05:20:49;;;;;;;4.30;3.90;;;10.40;69.80;;;;;;5054319;28;20025;-77
2021/10/16 05:23:15;;;;;;;4.25;3.72;;;10.70;70.40;;;;;;5036107;28;20021;-77
2021/10/16 05:25:41;;;;;;;4.80;3.75;;;10.70;69.90;;;;;;5053678;28;20514;-77
2021/10/16 05:28:07;;;;;;;6.80;3.58;;;10.60;70.00;;;;;;5036097;28;20021;-77
2021/10/16 05:30:32;;;;;;;5.57;3.47;;;10.60;71.90;;;;;;5053874;28;20025;-77
2021/10/16 05:32:58;;;;;;;5.93;4.07;;;10.50;71.60;;;;;;5053760;28;20376;-77
2021/10/16 05:35:24;;;;;;;4.38;3.00;;;10.70;70.00;;;;;;5036015;28;20025;-79
2021/10/16 05:37:50;;;;;;;4.70;3.30;;;10.90;68.20;;;;;;5035700;28;20110;-79
2021/10/16 05:40:17;;;;;;;4.05;3.25;;;10.90;69.20;;;;;;5035839;28;20021;-78
2021/10/16 05:42:43;;;;;;;6.90;3.13;;;11.00;69.10;;;;;;5053613;28;20037;-79
2021/10/16 05:45:09;;;;;;;7.80;2.90;;;11.00;68.80;;;;;;5035491;28;20029;-77
2021/10/16 05:47:36;;;;;;;3.65;2.63;;;11.20;67.80;;;;;;5053122;28;20064;-79
2021/10/16 05:50:04;;;;;;;2.88;2.47;;;11.30;67.60;;;;;;5053413;28;20021;-78
2021/10/16 05:52:30;;;;;;;4.30;2.95;;;11.40;67.40;;;;;;5053606;28;20115;-79
2021/10/16 05:54:56;;;;;;;5.30;2.63;;;11.50;67.70;;;;;;5053066;28;20021;-79
2021/10/16 05:57:21;;;;;;;3.67;2.83;;;11.70;66.80;;;;;;5051969;28;20081;-78
2021/10/16 05:59:47;;;;;;;4.53;2.40;;;11.70;66.00;;;;;;5052981;28;20056;-79
2021/10/16 06:02:13;;;;;;;2.97;2.40;;;11.90;66.20;;;;;;5053059;28;20444;-78
2021/10/16 06:04:38;;;;;;;3.38;2.22;;;12.20;67.50;;;;;;5053029;28;20417;-78
2021/10/16 06:07:04;;;;;;;2.85;2.45;;;12.20;66.30;;;;;;5053092;28;20020;-77
2021/10/16 06:09:30;;;;;;;2.72;2.53;;;12.30;67.20;;;;;;5035191;28;20021;-76
2021/10/16 06:11:56;;;;;;;3.35;2.80;;;12.30;66.50;;;;;;5053428;28;20073;-78
2021/10/16 06:14:21;;;;;;;3.13;2.83;;;12.40;69.10;;;;;;5053436;28;20025;-77
2021/10/16 06:16:47;;;;;;;3.08;2.40;;;12.40;68.50;;;;;;5053584;28;20021;-78
2021/10/16 06:19:13;;;;;;;4.70;2.58;;;12.50;69.70;;;;;;5053257;28;20021;-77
2021/10/16 06:21:39;;;;;;;2.78;2.50;;;12.60;69.00;;;;;;5052858;28;20060;-77
2021/10/16 06:24:05;;;;;;;3.63;2.85;;;12.60;70.10;;;;;;5052642;28;20028;-76
2021/10/16 06:26:30;;;;;;;3.10;2.58;;;12.70;69.60;;;;;;5052345;28;20029;-77
2021/10/16 06:28:56;;;;;;;3.65;2.40;;;12.80;70.00;;;;;;5052906;28;20028;-77
2021/10/16 06:31:21;;;;;;;2.75;2.40;;;12.90;70.70;;;;;;5052677;28;20502;-77
2021/10/16 06:33:47;;;;;;;3.33;2.47;;;13.00;69.60;;;;;;5034649;28;20021;-77
2021/10/16 06:36:13;;;;;;;3.30;2.90;;;13.20;70.10;;;;;;5052556;28;20467;-77
2021/10/16 06:38:38;;;;;;;2.72;2.28;;;13.30;69.50;;;;;;5052725;28;20401;-77
2021/10/16 06:41:05;;;;;;;2.58;2.38;;;13.50;69.50;;;;;;5051244;28;20394;-76
2021/10/16 06:43:31;;;;;;;2.70;2.50;;;13.60;68.50;;;;;;5052231;28;20021;-76
2021/10/16 06:45:57;;;;;;;2.95;2.55;;;13.80;68.30;;;;;;5034954;28;20028;-77
2021/10/16 06:48:23;;;;;;;6.68;2.67;;;13.90;68.40;;;;;;5052253;28;20489;-77
2021/10/16 06:50:48;;;;;;;6.47;2.75;;;14.00;67.90;;;;;;5052514;28;20057;-77
2021/10/16 06:53:14;;;;;;;2.75;2.20;;;14.00;68.50;;;;;;5052559;28;20071;-77
2021/10/16 06:55:40;;;;;;;4.03;2.50;;;13.90;69.60;;;;;;5052583;28;20036;-77
2021/10/16 06:58:06;;;;;;;7.95;2.80;;;13.90;70.30;;;;;;5034855;28;20119;-77
2021/10/16 07:00:31;;;;;;;4.05;2.60;;;13.90;68.90;;;;;;5038535;28;20037;-78
2021/10/16 07:02:57;;;;;;;3.38;2.55;;;14.00;69.90;;;;;;5056581;28;20044;-77
2021/10/16 07:05:23;;;;;;;2.60;2.40;;;13.90;69.30;;;;;;5038479;28;20017;-78
2021/10/16 07:07:49;;;;;;;3.95;2.42;;;14.10;69.40;;;;;;5056418;28;20055;-78
2021/10/16 07:10:14;;;;;;;3.08;2.65;;;14.10;68.70;;;;;;5038592;28;20017;-78
2021/10/16 07:12:40;;;;;;;3.55;2.50;;;14.20;69.40;;;;;;5056313;28;20049;-77
2021/10/16 07:15:07;;;;;;;3.00;2.70;;;14.10;68.60;;;;;;5056436;28;20029;-77
2021/10/16 07:17:33;;;;;;;4.35;2.90;;;14.10;69.50;;;;;;5056413;28;20039;-77
2021/10/16 07:19:58;;;;;;;3.08;2.65;;;14.20;69.70;;;;;;5038412;28;20478;-78
2021/10/16 07:22:24;;;;;;;5.35;2.28;;;14.30;70.80;;;;;;5056259;28;20075;-78
2021/10/16 07:24:50;;;;;;;3.60;2.35;;;14.30;71.70;;;;;;5056253;28;20029;-78
2021/10/16 07:27:16;;;;;;;2.75;2.40;;;14.40;69.50;;;;;;5056437;28;20025;-78
2021/10/16 07:29:42;;;;;;;2.65;2.20;;;14.50;70.40;;;;;;5056282;28;20025;-78
2021/10/16 07:32:08;;;;;;;5.68;2.60;;;14.60;70.30;;;;;;5056198;28;20032;-77
2021/10/16 07:34:34;;;;;;;5.20;2.13;;;14.60;68.90;;;;;;5056070;28;20517;-77
2021/10/16 07:36:59;;;;;;;2.58;2.38;;;14.60;70.50;;;;;;5056189;28;20407;-78
2021/10/16 07:39:25;;;;;;;3.28;2.20;;;14.60;68.80;;;;;;5056125;28;20048;-76
2021/10/16 07:41:51;;;;;;;3.60;2.30;;;14.50;70.00;;;;;;5055950;28;20041;-77
2021/10/16 07:44:17;;;;;;;3.97;2.55;;;14.60;71.70;;;;;;5055988;28;20029;-78
2021/10/16 07:46:44;;;;;;;2.47;2.00;;;14.70;71.10;;;;;;5038080;28;20040;-77
2021/10/16 07:49:10;;;;;;;1.98;1.88;;;14.80;70.00;;;;;;5055714;28;20063;-79
2021/10/16 07:51:36;;;;;;;2.60;2.38;;;14.80;71.20;;;;;;5037958;28;20025;-78
2021/10/16 07:54:02;;;;;;;2.90;2.30;;;14.90;70.40;;;;;;5055676;28;20028;-77
2021/10/16 07:56:28;;;;;;;4.18;2.70;;;14.90;70.00;;;;;;5055749;28;20032;-77
2021/10/16 07:58:53;;;;;;;2.80;2.15;;;14.80;70.80;;;;;;5055558;28;20385;-78
2021/10/16 08:01:19;;;;;;;7.28;2.53;;;15.00;69.30;;;;;;5055523;28;20021;-77
2021/10/16 08:03:45;;;;;;;4.18;2.30;;;15.20;68.00;;;;;;5055437;28;20027;-77
2021/10/16 08:06:11;;;;;;;4.40;2.00;;;15.30;71.60;;;;;;5055699;28;20032;-78
2021/10/16 08:08:37;;;;;;;2.38;1.88;;;15.40;71.40;;;;;;5055413;28;20462;-77
2021/10/16 08:11:03;;;;;;;1.95;1.83;;;15.40;70.00;;;;;;5037346;28;20033;-77
2021/10/16 08:13:30;;;;;;;4.13;2.28;;;15.40;70.10;;;;;;5037619;28;20059;-76
2021/10/16 08:15:57;;;;;;;2.30;2.10;;;15.40;67.70;;;;;;5055395;28;20433;-76
2021/10/16 08:18:23;;;;;;;5.05;2.72;;;15.30;68.10;;;;;;5055504;28;20017;-79
2021/10/16 08:20:49;;;;;;;2.42;2.22;;;15.30;70.30;;;;;;5055230;28;20066;-78
2021/10/16 08:23:15;;;;;;;4.15;2.22;;;15.30;70.90;;;;;;5054954;28;20080;-76
2021/10/16 08:25:41;;;;;;;2.60;2.40;;;15.40;68.60;;;;;;5055132;28;20032;-75
2021/10/16 08:28:12;;;;;;;2.30;2.10;;;15.40;69.20;;;;;;5055222;28;20047;-78
2021/10/16 08:30:41;;;;;;;3.15;2.00;;;15.40;69.90;;;;;;5055141;28;20146;-77
2021/10/16 08:33:07;;;;;;;4.47;1.73;;;15.50;69.40;;;;;;5054984;28;20125;-77
2021/10/16 08:35:33;;;;;;;2.22;1.77;;;15.60;69.20;;;;;;5054989;28;20055;-77
2021/10/16 08:37:58;;;;;;;4.45;2.42;;;15.70;70.70;;;;;;5054897;28;20031;-77
2021/10/16 08:40:27;;;;;;;2.63;2.10;;;15.80;69.70;;;;;;5055010;28;20025;-77
2021/10/16 08:42:53;;;;;;;2.47;1.92;;;15.90;69.40;;;;;;5054933;28;20025;-77
2021/10/16 08:45:19;;;;;;;2.10;1.88;;;15.90;72.00;;;;;;5054752;28;20400;-77
2021/10/16 08:47:47;;;;;;;4.07;2.17;;;16.00;69.40;;;;;;5054794;28;20029;-78
2021/10/16 08:50:13;;;;;;;2.15;1.92;;;16.00;71.00;;;;;;5054676;28;20021;-78
2021/10/16 08:52:40;;;;;;;3.08;1.90;;;16.00;69.10;;;;;;5054786;28;20024;-77
2021/10/16 08:55:08;;;;;;;2.38;1.90;;;16.10;68.30;;;;;;5054606;28;20043;-78
2021/10/16 08:57:38;;;;;;;2.30;1.98;;;16.10;68.80;;;;;;5036511;28;20460;-79
2021/10/16 09:00:35;;;;;;;5.93;1.80;;;16.10;68.80;;;;;;5052844;28;20491;-79
2021/10/16 09:03:19;;;;;;;5.45;2.30;;;16.10;68.50;;;;;;5060438;28;20042;-80
2021/10/16 09:06:16;;;;;;;4.60;2.22;;;16.20;68.00;;;;;;5054964;28;20029;-80
2021/10/16 09:08:48;;;;;;;2.17;1.98;;;16.30;67.70;;;;;;5054472;28;20506;-88
2021/10/16 09:11:17;;;;;;;11.57;2.33;;;16.40;68.30;;;;;;5055400;28;20074;-78
2021/10/16 09:13:48;;;;;;;4.40;2.10;;;16.50;69.20;;;;;;5054256;28;20025;-79
2021/10/16 09:16:29;;;;;;;1.90;1.70;;;16.50;68.60;;;;;;5054287;28;20468;-78
2021/10/16 09:19:01;;;;;;;3.03;2.05;;;16.70;67.80;;;;;;5054137;28;20465;-78
2021/10/16 09:21:29;;;;;;;2.67;1.98;;;16.80;69.20;;;;;;5053205;28;20155;-77
2021/10/16 09:24:11;;;;;;;3.20;2.10;;;16.90;68.60;;;;;;5054037;28;20029;-77
2021/10/16 09:26:40;;;;;;;2.38;1.90;;;17.00;67.40;;;;;;5036290;28;20032;-77
2021/10/16 09:29:08;;;;;;;3.22;1.95;;;17.00;66.80;;;;;;5054061;28;20468;-77
2021/10/16 09:31:47;;;;;;;2.92;1.95;;;17.10;68.00;;;;;;5054072;28;20028;-77
2021/10/16 09:34:13;;;;;;;2.95;2.30;;;17.10;70.40;;;;;;5035857;28;20052;-75
2021/10/16 09:36:41;;;;;;;2.13;1.58;;;17.30;69.10;;;;;;5053657;28;20023;-77
2021/10/16 09:39:08;;;;;;;5.55;3.05;;;17.30;68.10;;;;;;5035076;28;20471;-79
2021/10/16 09:41:37;;;;;;;2.40;2.03;;;17.40;70.80;;;;;;5053425;28;20472;-77
2021/10/16 09:44:05;;;;;;;2.85;2.20;;;17.50;67.70;;;;;;5053678;28;20096;-77
2021/10/16 09:46:31;;;;;;;5.35;2.20;;;17.60;67.70;;;;;;5053709;28;20471;-77
2021/10/16 09:49:07;;;;;;;3.75;2.00;;;17.70;69.00;;;;;;5053380;28;20029;-78
2021/10/16 09:51:49;;;;;;;6.20;2.13;;;17.80;67.70;;;;;;5053530;28;20483;-77
2021/10/16 09:54:15;;;;;;;5.13;1.95;;;17.80;66.60;;;;;;5035440;28;20487;-78
2021/10/16 09:56:41;;;;;;;2.20;1.70;;;17.80;65.90;;;;;;5053536;28;20033;-79
2021/10/16 09:59:08;;;;;;;4.53;1.90;;;17.90;65.70;;;;;;5053403;28;20152;-77
2021/10/16 10:01:34;;;;;;;4.28;1.67;;;18.00;66.30;;;;;;5035469;28;20025;-77
2021/10/16 10:04:00;;;;;;;2.08;1.65;;;18.10;66.90;;;;;;5053443;28;20025;-78
2021/10/16 10:06:27;;;;;;;1.73;1.50;;;18.20;67.20;;;;;;5053448;28;20024;-78
2021/10/16 10:08:53;;;;;;;2.58;1.73;;;18.40;64.80;;;;;;5035517;28;20378;-77
2021/10/16 10:11:20;;;;;;;2.22;1.77;;;18.50;64.60;;;;;;5053453;28;20021;-77
2021/10/16 10:13:48;;;;;;;5.07;2.03;;;18.50;64.10;;;;;;5053082;28;20021;-77
2021/10/16 10:16:14;;;;;;;4.72;2.10;;;18.50;64.00;;;;;;5053232;28;20495;-77
2021/10/16 10:19:00;;;;;;;1.70;1.60;;;18.40;64.20;;;;;;5035316;28;20045;-77
2021/10/16 10:21:34;;;;;;;2.20;2.00;;;18.40;64.70;;;;;;5053371;28;20064;-77
2021/10/16 10:24:02;;;;;;;2.65;1.88;;;18.50;64.60;;;;;;5035184;28;20025;-76
2021/10/16 10:26:38;;;;;;;2.50;1.95;;;18.50;63.80;;;;;;5053040;28;20036;-77
2021/10/16 10:29:07;;;;;;;3.88;2.20;;;18.60;63.90;;;;;;5052740;28;20021;-77
2021/10/16 10:31:45;;;;;;;4.10;2.10;;;18.60;65.80;;;;;;5052771;28;20021;-78
2021/10/16 10:34:14;;;;;;;4.30;2.00;;;18.60;64.90;;;;;;5052687;28;20044;-76
2021/10/16 10:36:49;;;;;;;2.30;2.10;;;18.60;65.00;;;;;;5052973;28;20101;-78
2021/10/16 10:39:33;;;;;;;3.10;2.05;;;18.80;65.10;;;;;;5052945;28;20021;-78
2021/10/16 10:42:24;;;;;;;2.25;1.88;;;18.80;63.80;;;;;;5034962;28;20090;-78
2021/10/16 10:44:59;;;;;;;2.97;1.95;;;18.70;63.60;;;;;;5042001;28;20523;-78
2021/10/16 10:47:30;;;;;;;1.85;1.70;;;18.70;64.90;;;;;;5052824;28;20029;-77
2021/10/16 10:49:58;;;;;;;3.30;2.20;;;18.80;63.50;;;;;;5034845;28;20423;-78
2021/10/16 10:52:27;;;;;;;2.83;1.88;;;18.90;62.70;;;;;;5052847;28;20076;-77
2021/10/16 10:54:59;;;;;;;1.92;1.70;;;18.90;62.40;;;;;;5053007;28;20021;-77
2021/10/16 10:57:58;;;;;;;1.83;1.50;;;18.90;63.20;;;;;;5052850;28;20075;-78
2021/10/16 11:00:27;;;;;;;2.22;1.83;;;19.00;63.90;;;;;;4990967;28;20046;-77
2021/10/16 11:02:52;;;;;;;2.70;1.90;;;19.10;62.80;;;;;;5013005;28;20045;-76
2021/10/16 11:05:36;;;;;;;6.18;1.70;;;19.10;62.70;;;;;;5013032;28;20389;-76
2021/10/16 11:08:11;;;;;;;2.35;1.77;;;19.10;64.00;;;;;;5011788;28;20061;-76
2021/10/16 11:10:38;;;;;;;3.03;1.80;;;19.20;63.50;;;;;;5011716;28;20080;-77
2021/10/16 11:13:21;;;;;;;2.25;1.50;;;19.10;62.30;;;;;;5011685;28;20384;-76
2021/10/16 11:15:58;;;;;;;3.47;1.67;;;19.10;62.40;;;;;;5012850;28;20029;-77
2021/10/16 11:18:24;;;;;;;2.60;1.85;;;19.20;60.80;;;;;;5012995;28;20439;-77
2021/10/16 11:20:50;;;;;;;2.28;1.65;;;19.20;61.60;;;;;;5012760;28;20022;-77
2021/10/16 11:23:18;;;;;;;2.78;1.50;;;19.40;61.90;;;;;;5011685;28;20022;-76
2021/10/16 11:26:04;;;;;;;1.90;1.38;;;19.50;60.60;;;;;;5012462;28;20049;-76
2021/10/16 11:28:31;;;;;;;1.80;1.70;;;19.40;60.10;;;;;;5011468;28;20037;-75
2021/10/16 11:30:58;;;;;;;2.28;1.42;;;19.40;60.80;;;;;;5012657;28;20026;-79
2021/10/16 11:33:32;;;;;;;2.03;1.35;;;19.40;59.90;;;;;;5012882;28;20067;-82
2021/10/16 11:35:59;;;;;;;2.80;1.55;;;19.40;59.50;;;;;;5013688;28;20502;-83
2021/10/16 11:38:34;;;;;;;2.20;1.83;;;19.40;60.80;;;;;;5012751;28;20041;-77
2021/10/16 11:41:01;;;;;;;2.30;1.52;;;19.50;60.60;;;;;;5012304;28;20028;-80
2021/10/16 11:43:35;;;;;;;2.33;1.40;;;19.70;60.00;;;;;;5012580;28;20030;-79
2021/10/16 11:46:03;;;;;;;3.65;1.27;;;19.90;60.10;;;;;;5016229;28;20026;-84
2021/10/16 11:48:28;;;;;;;6.95;1.60;;;20.00;58.80;;;;;;5016105;28;20053;-78
2021/10/16 11:50:58;;;;;;;1.58;1.48;;;20.00;59.00;;;;;;5016126;28;20542;-78
2021/10/16 11:53:30;;;;;;;2.05;1.42;;;20.00;59.50;;;;;;5014917;28;20025;-80
2021/10/16 11:56:06;;;;;;;2.13;1.60;;;20.00;59.50;;;;;;5016198;28;20026;-78
2021/10/16 11:58:32;;;;;;;3.95;1.80;;;20.00;59.80;;;;;;5029538;28;20037;-78
2021/10/16 12:01:03;;;;;;;2.75;1.50;;;20.30;59.40;;;;;;5055494;28;20021;-78
2021/10/16 12:03:40;;;;;;;1.98;1.65;;;21.40;57.50;;;;;;5037720;28;20040;-82
2021/10/16 12:06:10;;;;;;;1.70;1.60;;;24.40;53.10;;;;;;5037724;28;20027;-80
2021/10/16 12:08:44;;;;;;;2.20;1.63;;;26.00;50.70;;;;;;5055315;28;20387;-80
2021/10/16 12:11:19;;;;;;;2.65;1.55;;;26.60;49.80;;;;;;5037738;28;20025;-78
2021/10/16 12:13:56;;;;;;;5.13;1.50;;;27.40;49.90;;;;;;5055159;28;20027;-77
2021/10/16 12:16:24;;;;;;;2.53;1.20;;;29.30;47.00;;;;;;5037513;28;20025;-78
2021/10/16 12:18:54;;;;;;;1.48;1.38;;;29.40;45.60;;;;;;5054780;28;20021;-78
2021/10/16 12:21:41;;;;;;;1.17;1.10;;;28.90;45.60;;;;;;5055214;28;20068;-76
2021/10/16 12:24:24;;;;;;;1.25;1.10;;;28.80;45.50;;;;;;5055121;28;20033;-77
2021/10/16 12:27:13;;;;;;;2.55;1.30;;;29.30;44.60;;;;;;5055104;28;20112;-78
2021/10/16 12:29:46;;;;;;;2.17;1.70;;;30.00;43.70;;;;;;5055078;28;20501;-78
2021/10/16 12:32:14;;;;;;;2.17;1.30;;;29.60;44.50;;;;;;5055119;28;20025;-79
2021/10/16 12:34:50;;;;;;;1.17;1.00;;;30.20;43.80;;;;;;5037149;28;20057;-79
2021/10/16 12:37:15;;;;;;;1.40;1.20;;;31.20;42.70;;;;;;5054730;28;21046;-75
2021/10/16 12:39:43;;;;;;;1.85;1.30;;;31.20;42.40;;;;;;5035450;28;20017;-75
2021/10/16 12:42:13;;;;;;;1.60;1.40;;;30.70;42.40;;;;;;5036932;28;20041;-78
2021/10/16 12:44:44;;;;;;;1.45;1.35;;;30.40;43.20;;;;;;5036848;28;20029;-79
2021/10/16 12:47:18;;;;;;;1.50;1.40;;;31.10;42.50;;;;;;5054866;28;20372;-77
2021/10/16 12:49:59;;;;;;;1.38;1.27;;;31.80;41.70;;;;;;5036905;28;20032;-77
2021/10/16 12:52:36;;;;;;;1.42;1.00;;;32.50;40.90;;;;;;5036886;28;20040;-78